Prairie Rose, North Dakota
Current Conditions -  °F | °C
As of 1:53 PM on Wednesday 17 Dec 2014 (Local Time) from KFAR Reporting Station
Clear Clear  
Wind Chill: 11°   Ceiling: Unl
Heat Index: 19°   Visibility: 10mi
Dew Point: 11°   Wind: 6mph
Humidity: 71%   Direction: 360°N
Pressure: 30.33"   Gusts: NA
Location:  46.8079°N, 96.8643°W
Report Text: KFAR 171953Z 36005KT 10SM CLR M07/M12 A3033 RMK AO2 SLP292 T10721117
Loading
Personal Weather Stations






























Interactive Weather Map New forecast layout! Learn more

10-Day Weather Forecast

Advertisements
Track Severe Weather on mobile